sensor_id;sensor_type;location;lat;lon;timestamp;temperature;humidity
63802;DHT22;49949;43.060;25.624;2023-02-03T00:00:09;-1.20;99.90
63802;DHT22;49949;43.060;25.624;2023-02-03T00:02:34;-1.20;99.90
63802;DHT22;49949;43.060;25.624;2023-02-03T00:05:00;-1.30;99.90
63802;DHT22;49949;43.060;25.624;2023-02-03T00:07:26;-1.50;99.90
63802;DHT22;49949;43.060;25.624;2023-02-03T00:09:51;-1.40;99.90
63802;DHT22;49949;43.060;25.624;2023-02-03T00:12:17;-1.50;99.90
63802;DHT22;49949;43.060;25.624;2023-02-03T00:14:42;-1.50;99.90
63802;DHT22;49949;43.060;25.624;2023-02-03T00:17:08;-1.60;99.90
63802;DHT22;49949;43.060;25.624;2023-02-03T00:19:33;-1.70;99.90
63802;DHT22;49949;43.060;25.624;2023-02-03T00:21:59;-1.70;99.90
63802;DHT22;49949;43.060;25.624;2023-02-03T00:24:24;-1.70;99.90
63802;DHT22;49949;43.060;25.624;2023-02-03T00:26:50;-1.70;99.90
63802;DHT22;49949;43.060;25.624;2023-02-03T00:29:15;-1.70;99.90
63802;DHT22;49949;43.060;25.624;2023-02-03T00:31:42;-1.70;99.90
63802;DHT22;49949;43.060;25.624;2023-02-03T00:34:08;-1.70;99.90
63802;DHT22;49949;43.060;25.624;2023-02-03T00:36:34;-1.70;99.90
63802;DHT22;49949;43.060;25.624;2023-02-03T00:39:00;-1.70;99.90
63802;DHT22;49949;43.060;25.624;2023-02-03T00:41:27;-1.60;99.90
63802;DHT22;49949;43.060;25.624;2023-02-03T00:43:53;-1.60;99.90
63802;DHT22;49949;43.060;25.624;2023-02-03T00:46:18;-1.60;99.90
63802;DHT22;49949;43.060;25.624;2023-02-03T00:48:44;-1.50;99.90
63802;DHT22;49949;43.060;25.624;2023-02-03T00:51:09;-1.50;99.90
63802;DHT22;49949;43.060;25.624;2023-02-03T00:53:35;-1.40;99.90
63802;DHT22;49949;43.060;25.624;2023-02-03T00:56:01;-1.40;99.90
63802;DHT22;49949;43.060;25.624;2023-02-03T00:58:26;-1.30;99.90
63802;DHT22;49949;43.060;25.624;2023-02-03T01:00:53;-1.30;99.90
63802;DHT22;49949;43.060;25.624;2023-02-03T01:03:18;-1.20;99.90
63802;DHT22;49949;43.060;25.624;2023-02-03T01:05:44;-1.10;99.90
63802;DHT22;49949;43.060;25.624;2023-02-03T01:08:10;-1.10;99.90
63802;DHT22;49949;43.060;25.624;2023-02-03T01:10:36;-1.00;99.90
63802;DHT22;49949;43.060;25.624;2023-02-03T01:13:02;-1.00;99.90
63802;DHT22;49949;43.060;25.624;2023-02-03T01:15:27;-1.00;99.90
63802;DHT22;49949;43.060;25.624;2023-02-03T01:17:53;-0.80;99.90
63802;DHT22;49949;43.060;25.624;2023-02-03T01:20:19;-0.80;99.90
63802;DHT22;49949;43.060;25.624;2023-02-03T01:22:46;-1.00;99.90
63802;DHT22;49949;43.060;25.624;2023-02-03T01:25:11;-1.00;99.90
63802;DHT22;49949;43.060;25.624;2023-02-03T01:27:37;-0.90;99.90
63802;DHT22;49949;43.060;25.624;2023-02-03T01:30:02;-0.80;99.90
63802;DHT22;49949;43.060;25.624;2023-02-03T01:32:28;-0.80;99.90
63802;DHT22;49949;43.060;25.624;2023-02-03T01:34:54;-0.80;99.90
63802;DHT22;49949;43.060;25.624;2023-02-03T01:37:19;-0.70;99.90
63802;DHT22;49949;43.060;25.624;2023-02-03T01:39:45;-0.70;99.90
63802;DHT22;49949;43.060;25.624;2023-02-03T01:42:14;-0.70;99.90
63802;DHT22;49949;43.060;25.624;2023-02-03T01:44:46;-0.60;99.90
63802;DHT22;49949;43.060;25.624;2023-02-03T01:47:14;-0.60;99.90
63802;DHT22;49949;43.060;25.624;2023-02-03T01:49:40;-0.50;99.90
63802;DHT22;49949;43.060;25.624;2023-02-03T01:52:07;-0.40;99.90
63802;DHT22;49949;43.060;25.624;2023-02-03T01:54:35;-0.30;99.90
63802;DHT22;49949;43.060;25.624;2023-02-03T01:57:09;-0.30;99.90
63802;DHT22;49949;43.060;25.624;2023-02-03T01:59:36;-0.20;99.90
63802;DHT22;49949;43.060;25.624;2023-02-03T02:02:01;-0.10;99.90
63802;DHT22;49949;43.060;25.624;2023-02-03T02:04:28;-0.10;99.90
63802;DHT22;49949;43.060;25.624;2023-02-03T02:06:56;-0.10;99.90
63802;DHT22;49949;43.060;25.624;2023-02-03T02:09:23;0.00;99.90
63802;DHT22;49949;43.060;25.624;2023-02-03T02:11:48;-0.20;99.90
63802;DHT22;49949;43.060;25.624;2023-02-03T02:14:14;-0.10;99.90
63802;DHT22;49949;43.060;25.624;2023-02-03T02:16:46;-0.20;99.90
63802;DHT22;49949;43.060;25.624;2023-02-03T02:42:33;0.00;99.90
63802;DHT22;49949;43.060;25.624;2023-02-03T02:45:08;0.00;99.90
63802;DHT22;49949;43.060;25.624;2023-02-03T02:47:35;0.00;99.90
63802;DHT22;49949;43.060;25.624;2023-02-03T02:52:35;-0.20;99.90
63802;DHT22;49949;43.060;25.624;2023-02-03T02:55:10;-0.20;99.90
63802;DHT22;49949;43.060;25.624;2023-02-03T02:57:37;-0.10;99.90
63802;DHT22;49949;43.060;25.624;2023-02-03T03:00:04;-0.20;99.90
63802;DHT22;49949;43.060;25.624;2023-02-03T03:02:33;-0.30;99.90
63802;DHT22;49949;43.060;25.624;2023-02-03T03:04:59;-0.20;99.90
63802;DHT22;49949;43.060;25.624;2023-02-03T03:07:25;-0.10;99.90
63802;DHT22;49949;43.060;25.624;2023-02-03T03:10:02;-0.10;99.90
63802;DHT22;49949;43.060;25.624;2023-02-03T03:12:29;-0.10;99.90
63802;DHT22;49949;43.060;25.624;2023-02-03T03:14:57;0.10;99.90
63802;DHT22;49949;43.060;25.624;2023-02-03T03:17:26;0.00;99.90
63802;DHT22;49949;43.060;25.624;2023-02-03T03:19:54;0.20;99.90
63802;DHT22;49949;43.060;25.624;2023-02-03T03:22:21;0.30;99.90
63802;DHT22;49949;43.060;25.624;2023-02-03T03:24:49;0.30;99.90
63802;DHT22;49949;43.060;25.624;2023-02-03T03:27:17;0.10;99.90
63802;DHT22;49949;43.060;25.624;2023-02-03T03:29:47;0.10;99.90
63802;DHT22;49949;43.060;25.624;2023-02-03T03:32:13;0.30;99.90
63802;DHT22;49949;43.060;25.624;2023-02-03T03:34:39;0.40;99.90
63802;DHT22;49949;43.060;25.624;2023-02-03T03:37:29;0.40;99.90
63802;DHT22;49949;43.060;25.624;2023-02-03T03:39:56;0.40;99.90
63802;DHT22;49949;43.060;25.624;2023-02-03T03:42:31;0.50;99.90
63802;DHT22;49949;43.060;25.624;2023-02-03T03:49:58;0.40;99.90
63802;DHT22;49949;43.060;25.624;2023-02-03T03:52:26;0.40;99.90
63802;DHT22;49949;43.060;25.624;2023-02-03T03:54:53;0.40;99.90
63802;DHT22;49949;43.060;25.624;2023-02-03T03:57:24;0.40;99.90
63802;DHT22;49949;43.060;25.624;2023-02-03T03:59:51;0.40;99.90
63802;DHT22;49949;43.060;25.624;2023-02-03T04:02:18;0.50;99.90
63802;DHT22;49949;43.060;25.624;2023-02-03T04:04:44;0.50;99.90
63802;DHT22;49949;43.060;25.624;2023-02-03T04:07:13;0.50;99.90
63802;DHT22;49949;43.060;25.624;2023-02-03T04:09:39;0.60;99.90
63802;DHT22;49949;43.060;25.624;2023-02-03T04:12:15;0.70;99.90
63802;DHT22;49949;43.060;25.624;2023-02-03T04:14:45;0.90;99.90
63802;DHT22;49949;43.060;25.624;2023-02-03T04:17:11;0.90;99.90
63802;DHT22;49949;43.060;25.624;2023-02-03T04:19:36;1.00;99.90
63802;DHT22;49949;43.060;25.624;2023-02-03T04:22:02;1.10;99.90
63802;DHT22;49949;43.060;25.624;2023-02-03T04:24:27;1.30;99.90
63802;DHT22;49949;43.060;25.624;2023-02-03T04:26:53;1.40;99.90
63802;DHT22;49949;43.060;25.624;2023-02-03T04:29:19;1.40;99.90
63802;DHT22;49949;43.060;25.624;2023-02-03T04:31:44;1.50;99.90
63802;DHT22;49949;43.060;25.624;2023-02-03T04:34:10;1.60;99.90
63802;DHT22;49949;43.060;25.624;2023-02-03T04:36:36;1.70;99.90
63802;DHT22;49949;43.060;25.624;2023-02-03T04:39:01;1.80;99.90
63802;DHT22;49949;43.060;25.624;2023-02-03T04:41:27;1.90;99.90
63802;DHT22;49949;43.060;25.624;2023-02-03T04:43:53;2.00;99.90
63802;DHT22;49949;43.060;25.624;2023-02-03T04:46:18;2.20;99.90
63802;DHT22;49949;43.060;25.624;2023-02-03T04:48:44;2.30;99.90
63802;DHT22;49949;43.060;25.624;2023-02-03T04:51:09;2.50;99.90
63802;DHT22;49949;43.060;25.624;2023-02-03T04:53:35;2.50;99.90
63802;DHT22;49949;43.060;25.624;2023-02-03T04:56:01;2.60;99.90
63802;DHT22;49949;43.060;25.624;2023-02-03T04:58:26;2.60;99.90
63802;DHT22;49949;43.060;25.624;2023-02-03T05:00:52;2.60;99.90
63802;DHT22;49949;43.060;25.624;2023-02-03T05:03:18;2.70;99.90
63802;DHT22;49949;43.060;25.624;2023-02-03T05:05:44;2.80;99.90
63802;DHT22;49949;43.060;25.624;2023-02-03T05:08:09;2.80;99.90
63802;DHT22;49949;43.060;25.624;2023-02-03T05:10:35;2.80;99.90
63802;DHT22;49949;43.060;25.624;2023-02-03T05:13:00;2.80;99.90
63802;DHT22;49949;43.060;25.624;2023-02-03T05:15:26;2.80;99.90
63802;DHT22;49949;43.060;25.624;2023-02-03T05:17:52;2.80;99.90
63802;DHT22;49949;43.060;25.624;2023-02-03T05:20:18;2.80;99.90
63802;DHT22;49949;43.060;25.624;2023-02-03T05:22:43;2.80;99.90
63802;DHT22;49949;43.060;25.624;2023-02-03T05:25:09;2.80;99.90
63802;DHT22;49949;43.060;25.624;2023-02-03T05:27:36;2.90;99.90
63802;DHT22;49949;43.060;25.624;2023-02-03T05:30:02;2.90;99.90
63802;DHT22;49949;43.060;25.624;2023-02-03T05:32:28;2.90;99.90
63802;DHT22;49949;43.060;25.624;2023-02-03T05:34:53;2.90;99.90
63802;DHT22;49949;43.060;25.624;2023-02-03T05:37:19;2.90;99.90
63802;DHT22;49949;43.060;25.624;2023-02-03T05:39:44;3.00;99.90
63802;DHT22;49949;43.060;25.624;2023-02-03T05:42:10;3.00;99.90
63802;DHT22;49949;43.060;25.624;2023-02-03T05:44:35;3.00;99.90
63802;DHT22;49949;43.060;25.624;2023-02-03T05:47:01;3.00;99.90
63802;DHT22;49949;43.060;25.624;2023-02-03T05:49:27;3.10;99.90
63802;DHT22;49949;43.060;25.624;2023-02-03T05:51:53;3.10;99.90
63802;DHT22;49949;43.060;25.624;2023-02-03T05:54:18;3.10;99.90
63802;DHT22;49949;43.060;25.624;2023-02-03T05:56:44;3.20;99.90
63802;DHT22;49949;43.060;25.624;2023-02-03T05:59:09;3.20;99.90
63802;DHT22;49949;43.060;25.624;2023-02-03T06:01:35;3.20;99.90
63802;DHT22;49949;43.060;25.624;2023-02-03T06:04:01;3.20;99.90
63802;DHT22;49949;43.060;25.624;2023-02-03T06:06:27;3.30;99.90
63802;DHT22;49949;43.060;25.624;2023-02-03T06:09:00;3.30;99.90
63802;DHT22;49949;43.060;25.624;2023-02-03T06:11:27;3.30;99.90
63802;DHT22;49949;43.060;25.624;2023-02-03T06:13:53;3.30;99.90
63802;DHT22;49949;43.060;25.624;2023-02-03T06:16:18;3.40;99.90
63802;DHT22;49949;43.060;25.624;2023-02-03T06:18:44;3.40;99.90
63802;DHT22;49949;43.060;25.624;2023-02-03T06:21:09;3.40;99.90
63802;DHT22;49949;43.060;25.624;2023-02-03T06:23:35;3.30;99.90
63802;DHT22;49949;43.060;25.624;2023-02-03T06:26:00;3.30;99.90
63802;DHT22;49949;43.060;25.624;2023-02-03T06:28:26;3.40;99.90
63802;DHT22;49949;43.060;25.624;2023-02-03T06:30:51;3.60;99.90
63802;DHT22;49949;43.060;25.624;2023-02-03T06:33:20;3.60;99.90
63802;DHT22;49949;43.060;25.624;2023-02-03T06:35:45;3.70;99.90
63802;DHT22;49949;43.060;25.624;2023-02-03T06:38:11;3.80;99.90
63802;DHT22;49949;43.060;25.624;2023-02-03T06:40:36;3.70;99.90
63802;DHT22;49949;43.060;25.624;2023-02-03T06:43:02;3.80;99.90
63802;DHT22;49949;43.060;25.624;2023-02-03T06:45:27;3.90;99.90
63802;DHT22;49949;43.060;25.624;2023-02-03T06:47:53;4.00;99.90
63802;DHT22;49949;43.060;25.624;2023-02-03T06:50:18;4.00;99.90
63802;DHT22;49949;43.060;25.624;2023-02-03T06:52:44;4.00;99.90
63802;DHT22;49949;43.060;25.624;2023-02-03T06:55:10;4.00;99.90
63802;DHT22;49949;43.060;25.624;2023-02-03T06:57:41;4.10;99.90
63802;DHT22;49949;43.060;25.624;2023-02-03T07:00:07;4.10;99.90
63802;DHT22;49949;43.060;25.624;2023-02-03T07:02:33;4.20;99.90
63802;DHT22;49949;43.060;25.624;2023-02-03T07:04:58;4.30;99.90
63802;DHT22;49949;43.060;25.624;2023-02-03T07:07:24;4.30;99.90
63802;DHT22;49949;43.060;25.624;2023-02-03T07:09:49;4.40;99.90
63802;DHT22;49949;43.060;25.624;2023-02-03T07:12:15;4.30;99.90
63802;DHT22;49949;43.060;25.624;2023-02-03T07:14:40;4.30;99.90
63802;DHT22;49949;43.060;25.624;2023-02-03T07:17:06;4.20;99.90
63802;DHT22;49949;43.060;25.624;2023-02-03T07:19:32;4.10;99.90
63802;DHT22;49949;43.060;25.624;2023-02-03T07:21:57;4.00;99.90
63802;DHT22;49949;43.060;25.624;2023-02-03T07:24:23;4.00;99.90
63802;DHT22;49949;43.060;25.624;2023-02-03T07:26:48;4.00;99.90
63802;DHT22;49949;43.060;25.624;2023-02-03T07:29:14;4.00;99.90
63802;DHT22;49949;43.060;25.624;2023-02-03T07:31:39;4.10;99.90
63802;DHT22;49949;43.060;25.624;2023-02-03T07:34:05;4.30;99.90
63802;DHT22;49949;43.060;25.624;2023-02-03T07:36:31;4.50;99.90
63802;DHT22;49949;43.060;25.624;2023-02-03T07:38:56;4.70;99.90
63802;DHT22;49949;43.060;25.624;2023-02-03T07:41:22;4.80;99.90
63802;DHT22;49949;43.060;25.624;2023-02-03T07:43:48;4.80;99.90
63802;DHT22;49949;43.060;25.624;2023-02-03T07:46:13;4.90;99.90
63802;DHT22;49949;43.060;25.624;2023-02-03T07:48:39;5.00;99.90
63802;DHT22;49949;43.060;25.624;2023-02-03T07:51:04;5.00;99.90
63802;DHT22;49949;43.060;25.624;2023-02-03T07:53:30;5.10;99.90
63802;DHT22;49949;43.060;25.624;2023-02-03T07:56:03;5.20;99.90
63802;DHT22;49949;43.060;25.624;2023-02-03T07:58:29;5.50;99.90
63802;DHT22;49949;43.060;25.624;2023-02-03T08:00:55;5.60;99.90
63802;DHT22;49949;43.060;25.624;2023-02-03T08:03:21;5.70;99.90
63802;DHT22;49949;43.060;25.624;2023-02-03T08:05:46;5.70;99.90
63802;DHT22;49949;43.060;25.624;2023-02-03T08:08:12;5.60;99.90
63802;DHT22;49949;43.060;25.624;2023-02-03T08:10:38;5.80;99.90
63802;DHT22;49949;43.060;25.624;2023-02-03T08:13:03;6.00;99.90
63802;DHT22;49949;43.060;25.624;2023-02-03T08:15:29;5.90;99.90
63802;DHT22;49949;43.060;25.624;2023-02-03T08:17:54;5.80;99.90
63802;DHT22;49949;43.060;25.624;2023-02-03T08:20:20;5.80;99.90
63802;DHT22;49949;43.060;25.624;2023-02-03T08:22:45;5.70;99.90
63802;DHT22;49949;43.060;25.624;2023-02-03T08:25:11;5.80;99.90
63802;DHT22;49949;43.060;25.624;2023-02-03T08:27:37;5.70;99.90
63802;DHT22;49949;43.060;25.624;2023-02-03T08:30:03;5.60;99.90
63802;DHT22;49949;43.060;25.624;2023-02-03T08:32:29;5.60;99.90
63802;DHT22;49949;43.060;25.624;2023-02-03T08:34:54;5.70;99.90
63802;DHT22;49949;43.060;25.624;2023-02-03T08:37:21;5.70;99.90
63802;DHT22;49949;43.060;25.624;2023-02-03T08:39:48;5.80;99.90
63802;DHT22;49949;43.060;25.624;2023-02-03T08:42:14;5.90;99.90
63802;DHT22;49949;43.060;25.624;2023-02-03T08:44:39;5.90;99.90
63802;DHT22;49949;43.060;25.624;2023-02-03T08:47:05;6.00;99.90
63802;DHT22;49949;43.060;25.624;2023-02-03T08:49:31;6.10;99.90
63802;DHT22;49949;43.060;25.624;2023-02-03T08:51:57;6.20;99.90
63802;DHT22;49949;43.060;25.624;2023-02-03T08:54:23;6.10;99.90
63802;DHT22;49949;43.060;25.624;2023-02-03T08:56:49;6.20;99.90
63802;DHT22;49949;43.060;25.624;2023-02-03T08:59:15;6.10;99.90
63802;DHT22;49949;43.060;25.624;2023-02-03T09:01:41;6.20;99.90
63802;DHT22;49949;43.060;25.624;2023-02-03T09:04:10;6.30;99.90
63802;DHT22;49949;43.060;25.624;2023-02-03T09:06:36;6.40;99.90
63802;DHT22;49949;43.060;25.624;2023-02-03T09:09:02;6.50;99.90
63802;DHT22;49949;43.060;25.624;2023-02-03T09:11:27;6.50;99.90
63802;DHT22;49949;43.060;25.624;2023-02-03T09:13:53;6.70;99.90
63802;DHT22;49949;43.060;25.624;2023-02-03T09:16:18;7.00;99.90
63802;DHT22;49949;43.060;25.624;2023-02-03T09:18:46;7.30;99.90
63802;DHT22;49949;43.060;25.624;2023-02-03T09:21:12;7.90;99.90
63802;DHT22;49949;43.060;25.624;2023-02-03T09:23:39;8.80;99.90
63802;DHT22;49949;43.060;25.624;2023-02-03T09:26:08;9.90;99.90
63802;DHT22;49949;43.060;25.624;2023-02-03T09:28:34;9.80;99.90
63802;DHT22;49949;43.060;25.624;2023-02-03T09:31:03;10.40;99.90
63802;DHT22;49949;43.060;25.624;2023-02-03T09:33:29;12.30;90.90
63802;DHT22;49949;43.060;25.624;2023-02-03T09:35:55;11.70;87.20
63802;DHT22;49949;43.060;25.624;2023-02-03T09:38:21;10.80;91.40
63802;DHT22;49949;43.060;25.624;2023-02-03T09:46:23;10.20;93.30
63802;DHT22;49949;43.060;25.624;2023-02-03T09:49:02;10.30;95.00
63802;DHT22;49949;43.060;25.624;2023-02-03T09:51:31;10.60;94.30
63802;DHT22;49949;43.060;25.624;2023-02-03T09:54:03;10.80;91.30
63802;DHT22;49949;43.060;25.624;2023-02-03T09:56:31;10.70;92.60
63802;DHT22;49949;43.060;25.624;2023-02-03T09:58:57;10.60;90.70
63802;DHT22;49949;43.060;25.624;2023-02-03T10:01:24;10.40;95.10
63802;DHT22;49949;43.060;25.624;2023-02-03T10:03:58;10.30;96.70
63802;DHT22;49949;43.060;25.624;2023-02-03T10:14:10;9.30;99.90
63802;DHT22;49949;43.060;25.624;2023-02-03T10:16:56;9.10;99.90
63802;DHT22;49949;43.060;25.624;2023-02-03T10:19:26;8.80;99.90
63802;DHT22;49949;43.060;25.624;2023-02-03T10:21:53;9.00;99.90
63802;DHT22;49949;43.060;25.624;2023-02-03T10:24:23;9.00;99.90
63802;DHT22;49949;43.060;25.624;2023-02-03T10:26:51;8.90;99.90
63802;DHT22;49949;43.060;25.624;2023-02-03T10:29:21;8.70;99.90
63802;DHT22;49949;43.060;25.624;2023-02-03T10:31:48;8.50;99.90
63802;DHT22;49949;43.060;25.624;2023-02-03T10:34:15;8.60;99.90
63802;DHT22;49949;43.060;25.624;2023-02-03T10:36:45;8.70;99.90
63802;DHT22;49949;43.060;25.624;2023-02-03T10:39:17;8.40;99.90
63802;DHT22;49949;43.060;25.624;2023-02-03T10:41:45;8.20;99.90
63802;DHT22;49949;43.060;25.624;2023-02-03T10:44:11;8.20;99.90
63802;DHT22;49949;43.060;25.624;2023-02-03T10:46:38;8.10;99.90
63802;DHT22;49949;43.060;25.624;2023-02-03T10:49:04;8.00;99.90
63802;DHT22;49949;43.060;25.624;2023-02-03T10:53:59;7.70;99.90
63802;DHT22;49949;43.060;25.624;2023-02-03T10:56:31;7.60;99.90
63802;DHT22;49949;43.060;25.624;2023-02-03T10:58:59;7.70;99.90
63802;DHT22;49949;43.060;25.624;2023-02-03T11:01:26;7.80;99.90
63802;DHT22;49949;43.060;25.624;2023-02-03T11:03:56;7.80;99.90
63802;DHT22;49949;43.060;25.624;2023-02-03T11:06:23;7.60;99.90
63802;DHT22;49949;43.060;25.624;2023-02-03T11:08:49;7.60;99.90
63802;DHT22;49949;43.060;25.624;2023-02-03T11:11:30;7.40;99.90
63802;DHT22;49949;43.060;25.624;2023-02-03T11:16:28;7.40;99.90
63802;DHT22;49949;43.060;25.624;2023-02-03T11:26:12;7.20;99.90
63802;DHT22;49949;43.060;25.624;2023-02-03T11:28:42;7.20;99.90
63802;DHT22;49949;43.060;25.624;2023-02-03T11:31:51;7.10;99.90
63802;DHT22;49949;43.060;25.624;2023-02-03T11:33:59;7.00;99.90
63802;DHT22;49949;43.060;25.624;2023-02-03T11:36:26;6.80;99.90
63802;DHT22;49949;43.060;25.624;2023-02-03T11:38:51;6.80;99.90
63802;DHT22;49949;43.060;25.624;2023-02-03T11:41:35;6.90;99.90
63802;DHT22;49949;43.060;25.624;2023-02-03T11:44:00;7.00;99.90
63802;DHT22;49949;43.060;25.624;2023-02-03T11:46:35;7.10;99.90
63802;DHT22;49949;43.060;25.624;2023-02-03T11:51:54;7.30;99.90
63802;DHT22;49949;43.060;25.624;2023-02-03T11:54:45;7.40;99.90
63802;DHT22;49949;43.060;25.624;2023-02-03T11:57:20;7.50;99.90
63802;DHT22;49949;43.060;25.624;2023-02-03T12:28:45;8.20;99.90
63802;DHT22;49949;43.060;25.624;2023-02-03T12:33:59;7.60;99.90
63802;DHT22;49949;43.060;25.624;2023-02-03T12:36:28;7.40;99.90
63802;DHT22;49949;43.060;25.624;2023-02-03T12:41:22;7.20;99.90
63802;DHT22;49949;43.060;25.624;2023-02-03T12:43:50;7.00;99.90
63802;DHT22;49949;43.060;25.624;2023-02-03T12:46:36;7.00;99.90
63802;DHT22;49949;43.060;25.624;2023-02-03T12:52:04;6.90;99.90
63802;DHT22;49949;43.060;25.624;2023-02-03T12:56:52;6.90;99.90
63802;DHT22;49949;43.060;25.624;2023-02-03T12:59:19;7.00;99.90
63802;DHT22;49949;43.060;25.624;2023-02-03T13:02:29;7.10;99.90
63802;DHT22;49949;43.060;25.624;2023-02-03T13:10:03;7.20;99.90
63802;DHT22;49949;43.060;25.624;2023-02-03T13:12:31;7.20;99.90
63802;DHT22;49949;43.060;25.624;2023-02-03T13:17:30;7.00;99.90
63802;DHT22;49949;43.060;25.624;2023-02-03T13:19:59;7.00;99.90
63802;DHT22;49949;43.060;25.624;2023-02-03T13:22:26;7.00;99.90
63802;DHT22;49949;43.060;25.624;2023-02-03T13:25:16;7.00;99.90
63802;DHT22;49949;43.060;25.624;2023-02-03T13:43:00;6.90;99.90
63802;DHT22;49949;43.060;25.624;2023-02-03T13:48:06;6.90;99.90
63802;DHT22;49949;43.060;25.624;2023-02-03T13:50:33;6.90;99.90
63802;DHT22;49949;43.060;25.624;2023-02-03T13:52:59;6.80;99.90
63802;DHT22;49949;43.060;25.624;2023-02-03T13:55:33;6.70;99.90
63802;DHT22;49949;43.060;25.624;2023-02-03T13:58:00;6.70;99.90
63802;DHT22;49949;43.060;25.624;2023-02-03T14:05:44;6.30;99.90
63802;DHT22;49949;43.060;25.624;2023-02-03T14:13:37;6.10;99.90
63802;DHT22;49949;43.060;25.624;2023-02-03T14:16:13;6.10;99.90
63802;DHT22;49949;43.060;25.624;2023-02-03T14:18:46;6.00;99.90
63802;DHT22;49949;43.060;25.624;2023-02-03T14:21:13;6.00;99.90
63802;DHT22;49949;43.060;25.624;2023-02-03T14:23:41;5.90;99.90
63802;DHT22;49949;43.060;25.624;2023-02-03T14:29:10;5.90;99.90
63802;DHT22;49949;43.060;25.624;2023-02-03T14:34:55;5.90;99.90
63802;DHT22;49949;43.060;25.624;2023-02-03T14:37:14;6.00;99.90
63802;DHT22;49949;43.060;25.624;2023-02-03T14:42:16;6.00;99.90
63802;DHT22;49949;43.060;25.624;2023-02-03T14:47:24;6.00;99.90
63802;DHT22;49949;43.060;25.624;2023-02-03T14:57:20;5.90;99.90
63802;DHT22;49949;43.060;25.624;2023-02-03T14:59:52;5.90;99.90
63802;DHT22;49949;43.060;25.624;2023-02-03T15:04:45;5.80;99.90
63802;DHT22;49949;43.060;25.624;2023-02-03T15:10:26;5.80;99.90
63802;DHT22;49949;43.060;25.624;2023-02-03T15:12:54;5.80;99.90
63802;DHT22;49949;43.060;25.624;2023-02-03T15:15:27;5.70;99.90
63802;DHT22;49949;43.060;25.624;2023-02-03T15:17:54;5.70;99.90
63802;DHT22;49949;43.060;25.624;2023-02-03T15:20:24;5.50;99.90
63802;DHT22;49949;43.060;25.624;2023-02-03T15:22:50;5.40;99.90
63802;DHT22;49949;43.060;25.624;2023-02-03T15:25:16;5.30;99.90
63802;DHT22;49949;43.060;25.624;2023-02-03T15:27:42;5.20;99.90
63802;DHT22;49949;43.060;25.624;2023-02-03T15:30:15;5.10;99.90
63802;DHT22;49949;43.060;25.624;2023-02-03T15:32:42;5.00;99.90
63802;DHT22;49949;43.060;25.624;2023-02-03T15:35:12;4.80;99.90
63802;DHT22;49949;43.060;25.624;2023-02-03T15:37:41;4.70;99.90
63802;DHT22;49949;43.060;25.624;2023-02-03T15:40:20;4.60;99.90
63802;DHT22;49949;43.060;25.624;2023-02-03T15:43:00;4.50;99.90
63802;DHT22;49949;43.060;25.624;2023-02-03T15:48:15;4.20;99.90
63802;DHT22;49949;43.060;25.624;2023-02-03T15:50:40;4.10;99.90
63802;DHT22;49949;43.060;25.624;2023-02-03T15:53:42;4.00;99.90
63802;DHT22;49949;43.060;25.624;2023-02-03T15:56:00;3.80;99.90
63802;DHT22;49949;43.060;25.624;2023-02-03T15:58:29;3.70;99.90
63802;DHT22;49949;43.060;25.624;2023-02-03T16:00:55;3.50;99.90
63802;DHT22;49949;43.060;25.624;2023-02-03T16:03:38;3.40;99.90
63802;DHT22;49949;43.060;25.624;2023-02-03T16:06:08;3.20;99.90
63802;DHT22;49949;43.060;25.624;2023-02-03T16:08:38;3.00;99.90
63802;DHT22;49949;43.060;25.624;2023-02-03T16:13:49;2.80;99.90
63802;DHT22;49949;43.060;25.624;2023-02-03T16:16:16;2.60;99.90
63802;DHT22;49949;43.060;25.624;2023-02-03T16:19:01;2.40;99.90
63802;DHT22;49949;43.060;25.624;2023-02-03T16:24:00;2.40;99.90
63802;DHT22;49949;43.060;25.624;2023-02-03T16:26:28;2.20;99.90
63802;DHT22;49949;43.060;25.624;2023-02-03T16:28:54;2.10;99.90
63802;DHT22;49949;43.060;25.624;2023-02-03T16:31:40;1.90;99.90
63802;DHT22;49949;43.060;25.624;2023-02-03T16:34:26;1.70;99.90
63802;DHT22;49949;43.060;25.624;2023-02-03T16:40:07;1.40;99.90
63802;DHT22;49949;43.060;25.624;2023-02-03T16:42:51;1.20;99.90
63802;DHT22;49949;43.060;25.624;2023-02-03T16:45:35;1.20;99.90
63802;DHT22;49949;43.060;25.624;2023-02-03T16:48:20;1.10;99.90
63802;DHT22;49949;43.060;25.624;2023-02-03T16:51:05;1.00;99.90
63802;DHT22;49949;43.060;25.624;2023-02-03T16:53:34;0.90;99.90
63802;DHT22;49949;43.060;25.624;2023-02-03T16:56:01;0.80;99.90
63802;DHT22;49949;43.060;25.624;2023-02-03T16:58:28;0.70;99.90
63802;DHT22;49949;43.060;25.624;2023-02-03T17:00:54;0.70;99.90
63802;DHT22;49949;43.060;25.624;2023-02-03T17:03:21;0.50;99.90
63802;DHT22;49949;43.060;25.624;2023-02-03T17:05:48;0.20;99.90
63802;DHT22;49949;43.060;25.624;2023-02-03T17:08:14;0.20;99.90
63802;DHT22;49949;43.060;25.624;2023-02-03T17:10:41;0.10;99.90
63802;DHT22;49949;43.060;25.624;2023-02-03T17:13:07;0.10;99.90
63802;DHT22;49949;43.060;25.624;2023-02-03T17:15:33;0.10;99.90
63802;DHT22;49949;43.060;25.624;2023-02-03T17:17:59;0.00;99.90
63802;DHT22;49949;43.060;25.624;2023-02-03T17:20:25;0.00;99.90
63802;DHT22;49949;43.060;25.624;2023-02-03T17:22:51;-0.10;99.90
63802;DHT22;49949;43.060;25.624;2023-02-03T17:25:18;-0.20;99.90
63802;DHT22;49949;43.060;25.624;2023-02-03T17:27:44;-0.30;99.90
63802;DHT22;49949;43.060;25.624;2023-02-03T17:30:10;-0.30;99.90
63802;DHT22;49949;43.060;25.624;2023-02-03T17:32:35;-0.40;99.90
63802;DHT22;49949;43.060;25.624;2023-02-03T17:35:01;-0.50;99.90
63802;DHT22;49949;43.060;25.624;2023-02-03T17:37:26;-0.50;99.90
63802;DHT22;49949;43.060;25.624;2023-02-03T17:39:52;-0.60;99.90
63802;DHT22;49949;43.060;25.624;2023-02-03T17:42:18;-0.70;99.90
63802;DHT22;49949;43.060;25.624;2023-02-03T17:44:43;-0.70;99.90
63802;DHT22;49949;43.060;25.624;2023-02-03T17:47:09;-0.80;99.90
63802;DHT22;49949;43.060;25.624;2023-02-03T17:49:34;-0.80;99.90
63802;DHT22;49949;43.060;25.624;2023-02-03T17:52:00;-0.70;99.90
63802;DHT22;49949;43.060;25.624;2023-02-03T17:54:25;-0.80;99.90
63802;DHT22;49949;43.060;25.624;2023-02-03T17:56:51;-0.80;99.90
63802;DHT22;49949;43.060;25.624;2023-02-03T17:59:16;-0.80;99.90
63802;DHT22;49949;43.060;25.624;2023-02-03T18:01:42;-0.90;99.90
63802;DHT22;49949;43.060;25.624;2023-02-03T18:04:08;-0.90;99.90
63802;DHT22;49949;43.060;25.624;2023-02-03T18:06:34;-0.90;99.90
63802;DHT22;49949;43.060;25.624;2023-02-03T18:09:03;-1.00;99.90
63802;DHT22;49949;43.060;25.624;2023-02-03T18:11:30;-1.00;99.90
63802;DHT22;49949;43.060;25.624;2023-02-03T18:13:56;-1.10;99.90
63802;DHT22;49949;43.060;25.624;2023-02-03T18:16:22;-1.10;99.90
63802;DHT22;49949;43.060;25.624;2023-02-03T18:18:53;-1.20;99.90
63802;DHT22;49949;43.060;25.624;2023-02-03T18:21:20;-1.30;99.90